createdAt,value
2022-10-05T00:01:42.284Z,10.28
2022-10-05T00:09:19.009Z,10.22
2022-10-05T00:16:55.273Z,10.12
2022-10-05T00:24:29.846Z,10.02
2022-10-05T00:32:05.112Z,9.99
2022-10-05T00:39:40.375Z,9.89
2022-10-05T00:47:35.708Z,9.82
2022-10-05T00:55:20.622Z,9.75
2022-10-05T01:03:03.563Z,9.69
2022-10-05T01:10:43.179Z,9.67
2022-10-05T01:18:23.239Z,9.63
2022-10-05T01:26:08.916Z,9.56
2022-10-05T01:33:50.073Z,9.55
2022-10-05T01:41:35.024Z,9.49
2022-10-05T01:49:36.739Z,9.45
2022-10-05T01:57:21.679Z,9.41
2022-10-05T02:05:04.361Z,9.37
2022-10-05T02:12:39.670Z,9.29
2022-10-05T02:20:20.626Z,9.23
2022-10-05T02:27:59.213Z,9.15
2022-10-05T02:35:34.776Z,9.06
2022-10-05T02:43:20.731Z,9.03
2022-10-05T02:51:04.635Z,8.95
2022-10-05T02:58:47.025Z,8.91
2022-10-05T03:06:26.994Z,8.84
2022-10-05T03:14:09.483Z,8.79
2022-10-05T03:21:58.853Z,8.79
2022-10-05T03:29:41.455Z,8.80
2022-10-05T03:37:23.966Z,8.81
2022-10-05T03:45:03.558Z,8.82
2022-10-05T03:52:44.138Z,8.85
2022-10-05T04:00:23.212Z,8.91
2022-10-05T04:08:02.912Z,8.98
2022-10-05T04:15:42.553Z,9.01
2022-10-05T04:23:29.275Z,9.03
2022-10-05T04:31:06.359Z,9.06
2022-10-05T04:38:53.936Z,9.04
2022-10-05T04:46:41.293Z,9.06
2022-10-05T04:54:25.342Z,9.05
2022-10-05T05:02:06.768Z,9.07
2022-10-05T05:10:16.280Z,9.14
2022-10-05T05:18:08.018Z,9.21
2022-10-05T05:25:49.408Z,9.25
2022-10-05T05:33:27.338Z,9.29
2022-10-05T05:41:09.609Z,9.36
2022-10-05T05:48:45.092Z,9.42
2022-10-05T05:56:25.423Z,9.46
2022-10-05T06:04:03.036Z,9.53
2022-10-05T06:11:43.152Z,9.59
2022-10-05T06:19:19.663Z,9.67
2022-10-05T06:27:22.886Z,9.75
2022-10-05T06:35:07.054Z,9.87
2022-10-05T06:43:06.700Z,9.97
2022-10-05T06:50:45.474Z,10.06
2022-10-05T06:58:32.695Z,10.19
2022-10-05T07:06:16.431Z,10.30
2022-10-05T07:14:13.409Z,10.41
2022-10-05T07:22:01.788Z,10.61
2022-10-05T07:29:42.997Z,10.80
2022-10-05T07:37:38.790Z,11.01
2022-10-05T07:45:29.806Z,11.23
2022-10-05T07:53:07.470Z,11.55
2022-10-05T08:00:58.767Z,11.81
2022-10-05T08:08:41.082Z,12.02
2022-10-05T08:16:17.677Z,12.28
2022-10-05T08:23:56.731Z,12.44
2022-10-05T08:31:34.673Z,12.74
2022-10-05T08:39:16.316Z,13.09
2022-10-05T08:47:16.319Z,13.44
2022-10-05T08:55:16.840Z,13.68
2022-10-05T09:03:16.455Z,13.97
2022-10-05T09:11:07.016Z,14.34
2022-10-05T09:19:08.837Z,14.52
2022-10-05T09:26:44.776Z,14.55
2022-10-05T09:34:49.968Z,14.52
2022-10-05T09:43:00.098Z,14.59
2022-10-05T09:51:03.534Z,14.93
2022-10-05T09:59:10.271Z,15.20
2022-10-05T10:07:03.660Z,15.29
2022-10-05T10:15:12.014Z,15.54
2022-10-05T10:23:13.396Z,15.74
2022-10-05T10:31:01.961Z,15.77
2022-10-05T10:38:55.103Z,15.81
2022-10-05T10:46:37.789Z,15.93
2022-10-05T10:54:42.852Z,15.95
2022-10-05T11:02:39.275Z,16.13
2022-10-05T11:10:34.959Z,16.46
2022-10-05T11:18:20.397Z,16.66
2022-10-05T11:25:58.772Z,16.84
2022-10-05T11:34:06.809Z,17.19
2022-10-05T11:42:09.640Z,17.52
2022-10-05T11:49:51.453Z,17.59
2022-10-05T11:57:33.798Z,17.57
2022-10-05T12:05:18.248Z,17.58
2022-10-05T12:13:03.036Z,17.66
2022-10-05T12:20:45.973Z,17.80
2022-10-05T12:28:25.705Z,17.93
2022-10-05T12:36:04.967Z,18.19
2022-10-05T12:43:54.498Z,18.34
2022-10-05T12:51:39.234Z,18.40
2022-10-05T12:59:24.555Z,18.48
2022-10-05T13:07:24.503Z,18.68
2022-10-05T13:15:05.649Z,18.78
2022-10-05T13:22:44.873Z,18.72
2022-10-05T13:30:20.910Z,18.87
2022-10-05T13:38:04.377Z,18.87
2022-10-05T13:45:45.143Z,18.88
2022-10-05T13:53:29.466Z,18.75
2022-10-05T14:01:08.202Z,18.68
2022-10-05T14:08:52.090Z,18.60
2022-10-05T14:16:26.480Z,18.57
2022-10-05T14:24:43.168Z,18.58
2022-10-05T14:32:18.862Z,18.57
2022-10-05T14:39:58.704Z,18.53
2022-10-05T14:47:39.656Z,18.44
2022-10-05T14:55:35.973Z,18.36
2022-10-05T15:03:33.416Z,18.33
2022-10-05T15:11:11.598Z,18.33
2022-10-05T15:18:52.970Z,18.32
2022-10-05T15:26:41.922Z,18.22
2022-10-05T15:34:22.298Z,18.12
2022-10-05T15:42:02.021Z,18.06
2022-10-05T15:49:42.712Z,17.97
2022-10-05T15:57:26.246Z,17.80
2022-10-05T16:05:08.427Z,17.68
2022-10-05T16:12:53.754Z,17.54
2022-10-05T16:20:37.334Z,17.39
2022-10-05T16:28:29.139Z,17.22
2022-10-05T16:36:17.811Z,17.07
2022-10-05T16:44:04.091Z,16.91
2022-10-05T16:51:50.768Z,16.71
2022-10-05T17:00:01.745Z,16.50
2022-10-05T17:07:53.082Z,16.26
2022-10-05T17:15:55.252Z,16.04
2022-10-05T17:23:53.522Z,15.75
2022-10-05T17:31:32.775Z,15.53
2022-10-05T17:39:15.267Z,15.32
2022-10-05T17:46:52.679Z,15.15
2022-10-05T17:54:48.162Z,15.04
2022-10-05T18:02:26.941Z,14.84
2022-10-05T18:10:17.135Z,14.67
2022-10-05T18:17:56.138Z,14.54
2022-10-05T18:25:35.739Z,14.40
2022-10-05T18:33:30.936Z,14.21
2022-10-05T18:41:10.072Z,14.07
2022-10-05T18:48:56.796Z,13.89
2022-10-05T18:56:38.031Z,13.76
2022-10-05T19:04:26.470Z,13.66
2022-10-05T19:12:08.144Z,13.61
2022-10-05T19:19:54.132Z,13.55
2022-10-05T19:27:40.201Z,13.46
2022-10-05T19:35:25.618Z,13.40
2022-10-05T19:43:08.011Z,13.31
2022-10-05T19:50:54.238Z,13.22
2022-10-05T19:58:30.038Z,13.14
2022-10-05T20:06:07.496Z,13.02
2022-10-05T20:13:42.868Z,12.93
2022-10-05T20:21:44.440Z,12.81
2022-10-05T20:29:18.140Z,12.74
2022-10-05T20:36:53.435Z,12.67
2022-10-05T20:44:27.616Z,12.66
2022-10-05T20:52:03.510Z,12.72
2022-10-05T20:59:37.563Z,12.81
2022-10-05T21:07:12.709Z,12.94
2022-10-05T21:14:47.505Z,12.97
2022-10-05T21:22:22.730Z,13.16
2022-10-05T21:29:56.408Z,13.34
2022-10-05T21:37:31.654Z,13.43
2022-10-05T21:45:06.279Z,13.51
2022-10-05T21:52:41.316Z,13.59
2022-10-05T22:00:16.405Z,13.66
2022-10-05T22:07:51.751Z,13.71
2022-10-05T22:15:25.455Z,13.71
2022-10-05T22:23:00.563Z,13.64
2022-10-05T22:30:34.631Z,13.59
2022-10-05T22:38:09.930Z,13.63
2022-10-05T22:45:43.993Z,13.63
2022-10-05T22:53:19.399Z,13.55
2022-10-05T23:00:58.317Z,13.51
2022-10-05T23:08:35.386Z,13.51
2022-10-05T23:16:10.984Z,13.49
2022-10-05T23:23:49.212Z,13.46
2022-10-05T23:31:25.214Z,13.51
2022-10-05T23:39:00.633Z,13.54
2022-10-05T23:46:34.286Z,13.59
2022-10-05T23:54:09.470Z,13.68
